createdAt,value
2019-05-21T00:01:05.441Z,6.47
2019-05-21T00:03:36.850Z,6.53
2019-05-21T00:06:08.589Z,6.80
2019-05-21T00:08:40.045Z,5.90
2019-05-21T00:11:11.436Z,6.33
2019-05-21T00:13:43.002Z,6.10
2019-05-21T00:16:14.648Z,6.17
2019-05-21T00:18:46.729Z,5.80
2019-05-21T00:21:18.408Z,5.90
2019-05-21T00:23:50.116Z,5.80
2019-05-21T00:26:21.524Z,5.80
2019-05-21T00:29:30.916Z,5.77
2019-05-21T00:32:39.709Z,5.73
2019-05-21T00:35:50.767Z,5.67
2019-05-21T00:39:00.165Z,5.63
2019-05-21T00:42:06.094Z,5.30
2019-05-21T00:44:41.755Z,5.70
2019-05-21T00:47:13.200Z,5.27
2019-05-21T00:49:44.834Z,6.00
2019-05-21T00:52:16.262Z,5.40
2019-05-21T00:54:47.697Z,5.57
2019-05-21T00:57:19.022Z,5.67
2019-05-21T00:59:50.445Z,5.77
2019-05-21T01:02:22.022Z,5.37
2019-05-21T01:05:00.615Z,5.50
2019-05-21T01:07:27.249Z,5.40
2019-05-21T01:09:58.621Z,5.20
2019-05-21T01:12:31.504Z,5.60
2019-05-21T01:15:05.952Z,5.50
2019-05-21T01:17:37.687Z,5.40
2019-05-21T01:20:09.308Z,5.27
2019-05-21T01:22:40.790Z,5.20
2019-05-21T01:25:12.258Z,4.83
2019-05-21T01:27:43.625Z,5.47
2019-05-21T01:30:15.057Z,5.60
2019-05-21T01:32:46.364Z,5.53
2019-05-21T01:35:18.032Z,5.37
2019-05-21T01:37:49.580Z,4.90
2019-05-21T01:40:21.063Z,4.73
2019-05-21T01:42:52.507Z,5.20
2019-05-21T01:45:23.832Z,5.00
2019-05-21T01:47:55.106Z,5.13
2019-05-21T01:50:26.560Z,5.97
2019-05-21T01:52:57.831Z,5.37
2019-05-21T01:55:29.552Z,5.67
2019-05-21T01:58:01.201Z,5.63
2019-05-21T02:00:32.606Z,6.03
2019-05-21T02:03:04.055Z,5.37
2019-05-21T02:05:35.902Z,5.80
2019-05-21T02:08:07.464Z,5.37
2019-05-21T02:10:38.836Z,5.17
2019-05-21T02:13:10.117Z,4.93
2019-05-21T02:15:41.942Z,6.00
2019-05-21T02:18:13.534Z,5.47
2019-05-21T02:20:44.839Z,5.30
2019-05-21T02:23:16.622Z,5.97
2019-05-21T02:25:47.922Z,5.67
2019-05-21T02:28:19.244Z,5.47
2019-05-21T02:30:50.577Z,5.40
2019-05-21T02:33:22.172Z,5.50
2019-05-21T02:35:54.860Z,5.67
2019-05-21T02:38:26.793Z,5.30
2019-05-21T02:40:58.399Z,5.77
2019-05-21T02:43:30.291Z,5.77
2019-05-21T02:46:01.617Z,5.87
2019-05-21T02:48:33.177Z,6.47
2019-05-21T02:51:04.791Z,7.03
2019-05-21T02:53:36.210Z,7.73
2019-05-21T02:56:07.631Z,6.57
2019-05-21T02:58:39.258Z,5.90
2019-05-21T03:01:25.070Z,5.47
2019-05-21T03:03:56.586Z,6.20
2019-05-21T03:06:28.110Z,5.70
2019-05-21T03:09:00.008Z,6.40
2019-05-21T03:11:31.471Z,6.50
2019-05-21T03:14:03.123Z,6.20
2019-05-21T03:16:34.638Z,6.40
2019-05-21T03:19:06.241Z,6.20
2019-05-21T03:21:37.871Z,6.50
2019-05-21T03:24:09.629Z,6.07
2019-05-21T03:26:41.320Z,6.53
2019-05-21T03:29:12.834Z,5.90
2019-05-21T03:31:44.484Z,6.33
2019-05-21T03:34:16.217Z,5.97
2019-05-21T03:36:47.697Z,6.43
2019-05-21T03:39:19.679Z,6.03
2019-05-21T03:41:51.363Z,6.17
2019-05-21T03:44:23.455Z,6.53
2019-05-21T03:46:55.125Z,6.47
2019-05-21T03:49:26.457Z,5.87
2019-05-21T03:51:57.829Z,6.10
2019-05-21T03:54:29.133Z,6.10
2019-05-21T03:57:00.626Z,6.10
2019-05-21T03:59:31.927Z,6.40
2019-05-21T04:02:03.286Z,6.50
2019-05-21T04:04:34.879Z,5.97
2019-05-21T04:07:06.385Z,6.47
2019-05-21T04:09:37.749Z,6.67
2019-05-21T04:12:09.138Z,6.07
2019-05-21T04:14:45.409Z,6.37
2019-05-21T04:17:35.238Z,6.70
2019-05-21T04:20:06.795Z,6.60
2019-05-21T04:22:40.056Z,6.70
2019-05-21T04:25:11.591Z,6.63
2019-05-21T04:27:42.942Z,7.17
2019-05-21T04:30:14.649Z,6.63
2019-05-21T04:32:46.295Z,5.80
2019-05-21T04:35:17.822Z,6.10
2019-05-21T04:37:49.108Z,5.20
2019-05-21T04:40:20.723Z,5.50
2019-05-21T04:42:52.080Z,5.90
2019-05-21T04:45:23.417Z,6.10
2019-05-21T04:47:54.687Z,5.93
2019-05-21T04:50:27.388Z,5.57
2019-05-21T04:52:58.668Z,5.40
2019-05-21T04:55:30.243Z,5.53
2019-05-21T04:58:01.756Z,6.77
2019-05-21T05:00:33.281Z,5.83
2019-05-21T05:03:04.990Z,5.53
2019-05-21T05:05:36.638Z,5.57
2019-05-21T05:08:07.805Z,6.23
2019-05-21T05:10:40.267Z,5.53
2019-05-21T05:13:12.122Z,5.63
2019-05-21T05:15:43.401Z,5.40
2019-05-21T05:18:14.688Z,5.43
2019-05-21T05:20:46.202Z,4.70
2019-05-21T05:23:17.462Z,4.60
2019-05-21T05:25:49.426Z,4.80
2019-05-21T05:28:20.817Z,4.40
2019-05-21T05:30:52.337Z,4.00
2019-05-21T05:33:23.688Z,4.47
2019-05-21T05:35:54.909Z,4.20
2019-05-21T05:38:26.458Z,3.77
2019-05-21T05:40:58.138Z,4.20
2019-05-21T05:43:29.746Z,4.30
2019-05-21T05:46:01.531Z,3.90
2019-05-21T05:48:34.964Z,3.80
2019-05-21T05:51:07.821Z,4.03
2019-05-21T05:53:58.058Z,4.50
2019-05-21T05:56:29.640Z,3.45
2019-05-21T05:59:01.417Z,3.20
2019-05-21T06:01:33.875Z,3.60
2019-05-21T06:04:05.527Z,2.80
2019-05-21T06:06:37.201Z,3.33
2019-05-21T06:09:08.475Z,2.80
2019-05-21T06:11:39.815Z,2.80
2019-05-21T06:14:11.245Z,2.70
2019-05-21T06:16:42.918Z,2.70
2019-05-21T06:19:14.352Z,3.40
2019-05-21T06:21:46.002Z,2.87
2019-05-21T06:24:17.793Z,2.20
2019-05-21T06:26:49.413Z,2.13
2019-05-21T06:29:21.101Z,2.53
2019-05-21T06:31:52.400Z,2.30
2019-05-21T06:34:23.793Z,2.37
2019-05-21T06:36:55.134Z,2.40
2019-05-21T06:39:26.561Z,2.10
2019-05-21T06:41:57.752Z,2.20
2019-05-21T06:44:29.341Z,2.27
2019-05-21T06:47:00.603Z,2.63
2019-05-21T06:49:32.252Z,2.40
2019-05-21T06:52:03.648Z,2.43
2019-05-21T06:54:34.961Z,2.60
2019-05-21T06:57:06.495Z,2.47
2019-05-21T06:59:37.762Z,2.60
2019-05-21T07:02:09.362Z,2.60
2019-05-21T07:04:40.832Z,2.93
2019-05-21T07:07:12.136Z,2.80
2019-05-21T07:09:43.487Z,2.70
2019-05-21T07:12:15.066Z,2.70
2019-05-21T07:14:46.642Z,2.40
2019-05-21T07:17:19.208Z,2.33
2019-05-21T07:19:50.696Z,2.10
2019-05-21T07:22:21.988Z,2.40
2019-05-21T07:24:53.319Z,2.60
2019-05-21T07:27:24.718Z,2.30
2019-05-21T07:29:55.951Z,2.33
2019-05-21T07:32:27.262Z,2.53
2019-05-21T07:34:58.551Z,2.43
2019-05-21T07:37:29.821Z,2.40
2019-05-21T07:40:01.292Z,2.20
2019-05-21T07:42:32.665Z,2.10
2019-05-21T07:45:05.870Z,2.10
2019-05-21T07:47:37.560Z,2.20
2019-05-21T07:50:08.941Z,2.10
2019-05-21T07:52:40.272Z,1.90
2019-05-21T07:55:11.817Z,1.90
2019-05-21T07:57:43.507Z,1.50
2019-05-21T08:00:16.389Z,1.67
2019-05-21T08:02:48.291Z,1.83
2019-05-21T08:05:19.843Z,1.40
2019-05-21T08:07:52.366Z,1.80
2019-05-21T08:10:23.784Z,1.40
2019-05-21T08:12:55.228Z,1.50
2019-05-21T08:15:26.712Z,1.40
2019-05-21T08:17:57.982Z,1.80
2019-05-21T08:20:29.779Z,1.40
2019-05-21T08:23:01.211Z,1.43
2019-05-21T08:25:32.753Z,1.60
2019-05-21T08:28:04.347Z,1.80
2019-05-21T08:30:35.641Z,1.50
2019-05-21T08:33:07.020Z,1.57
2019-05-21T08:35:38.377Z,1.70
2019-05-21T08:38:09.756Z,1.60
2019-05-21T08:40:41.437Z,1.70
2019-05-21T08:43:12.860Z,1.60
2019-05-21T08:45:44.131Z,1.73
2019-05-21T08:48:15.378Z,1.80
2019-05-21T08:50:46.677Z,1.77
2019-05-21T08:53:18.025Z,1.90
2019-05-21T08:55:49.358Z,1.90
2019-05-21T08:58:20.675Z,2.70
2019-05-21T09:00:52.394Z,3.40
2019-05-21T09:03:24.148Z,3.70
2019-05-21T09:05:55.416Z,3.10
2019-05-21T09:08:26.658Z,3.37
2019-05-21T09:10:59.877Z,3.58
2019-05-21T09:13:31.489Z,3.07
2019-05-21T09:16:03.242Z,3.10
2019-05-21T09:18:34.787Z,3.67
2019-05-21T09:21:06.424Z,3.80
2019-05-21T09:23:37.742Z,3.60
2019-05-21T09:26:08.984Z,4.43
2019-05-21T09:28:40.412Z,4.37
2019-05-21T09:31:11.694Z,4.67
2019-05-21T09:33:43.046Z,4.73
2019-05-21T09:36:14.526Z,5.10
2019-05-21T09:38:45.792Z,5.17
2019-05-21T09:41:17.108Z,6.37
2019-05-21T09:43:48.535Z,6.30
2019-05-21T09:46:20.053Z,5.57
2019-05-21T09:48:51.344Z,5.80
2019-05-21T09:51:22.661Z,5.80
2019-05-21T09:53:53.970Z,6.10
2019-05-21T09:56:37.051Z,6.03
2019-05-21T09:59:27.752Z,5.83
2019-05-21T10:02:01.201Z,6.20
2019-05-21T10:04:32.481Z,6.30
2019-05-21T10:07:04.309Z,6.50
2019-05-21T10:09:35.834Z,6.00
2019-05-21T10:12:07.820Z,6.10
2019-05-21T10:14:39.126Z,6.20
2019-05-21T10:17:10.420Z,7.10
2019-05-21T10:19:41.881Z,6.83
2019-05-21T10:22:13.134Z,7.07
2019-05-21T10:24:44.754Z,6.70
2019-05-21T10:27:16.208Z,6.83
2019-05-21T10:29:47.593Z,6.43
2019-05-21T10:32:18.848Z,6.73
2019-05-21T10:34:50.610Z,6.47
2019-05-21T10:37:21.886Z,5.80
2019-05-21T10:39:53.223Z,5.60
2019-05-21T10:42:24.733Z,5.90
2019-05-21T10:44:55.968Z,5.90
2019-05-21T10:47:27.603Z,6.50
2019-05-21T10:49:59.939Z,6.50
2019-05-21T10:52:31.580Z,6.03
2019-05-21T10:55:04.458Z,6.17
2019-05-21T10:57:37.212Z,6.10
2019-05-21T11:00:11.735Z,6.10
2019-05-21T11:02:48.744Z,6.37
2019-05-21T11:05:24.547Z,5.70
2019-05-21T11:07:55.877Z,6.00
2019-05-21T11:10:27.297Z,6.50
2019-05-21T11:12:58.988Z,5.80
2019-05-21T11:15:30.482Z,6.07
2019-05-21T11:18:10.379Z,6.57
2019-05-21T11:20:34.973Z,5.40
2019-05-21T11:23:06.278Z,5.70
2019-05-21T11:25:37.497Z,6.50
2019-05-21T11:28:08.938Z,5.80
2019-05-21T11:30:40.713Z,5.83
2019-05-21T11:33:12.366Z,6.03
2019-05-21T11:35:43.725Z,5.90
2019-05-21T11:38:15.351Z,5.33
2019-05-21T11:40:50.741Z,6.00
2019-05-21T11:43:20.098Z,5.97
2019-05-21T11:45:51.778Z,6.50
2019-05-21T11:48:23.428Z,6.00
2019-05-21T11:50:54.860Z,5.73
2019-05-21T11:53:26.230Z,7.30
2019-05-21T11:55:57.916Z,5.90
2019-05-21T11:58:29.463Z,6.63
2019-05-21T12:01:00.756Z,6.13
2019-05-21T12:03:32.640Z,6.00
2019-05-21T12:06:04.117Z,6.30
2019-05-21T12:08:35.664Z,5.83
2019-05-21T12:11:07.515Z,5.43
2019-05-21T12:13:38.847Z,6.00
2019-05-21T12:16:10.145Z,6.03
2019-05-21T12:18:41.718Z,5.70
2019-05-21T12:21:13.068Z,5.27
2019-05-21T12:23:44.519Z,5.60
2019-05-21T12:26:15.693Z,5.60
2019-05-21T12:28:46.873Z,5.13
2019-05-21T12:31:18.184Z,5.73
2019-05-21T12:33:49.648Z,5.30
2019-05-21T12:36:20.867Z,5.63
2019-05-21T12:38:52.437Z,5.47
2019-05-21T12:41:24.058Z,5.80
2019-05-21T12:43:55.425Z,6.00
2019-05-21T12:46:26.759Z,5.17
2019-05-21T12:48:58.249Z,5.40
2019-05-21T12:51:29.656Z,5.10
2019-05-21T12:54:00.863Z,5.67
2019-05-21T12:56:32.267Z,5.13
2019-05-21T12:59:03.857Z,5.03
2019-05-21T13:01:35.175Z,4.77
2019-05-21T13:04:06.456Z,4.57
2019-05-21T13:06:37.733Z,4.40
2019-05-21T13:09:09.060Z,4.30
2019-05-21T13:11:40.853Z,4.40
2019-05-21T13:14:17.721Z,4.10
2019-05-21T13:16:45.343Z,3.83
2019-05-21T13:19:16.874Z,3.80
2019-05-21T13:21:48.117Z,3.80
2019-05-21T13:24:19.435Z,3.90
2019-05-21T13:26:51.053Z,3.67
2019-05-21T13:29:22.487Z,3.23
2019-05-21T13:31:54.011Z,3.40
2019-05-21T13:34:25.509Z,3.43
2019-05-21T13:36:56.776Z,2.67
2019-05-21T13:39:28.393Z,3.27
2019-05-21T13:42:01.251Z,2.80
2019-05-21T13:44:32.595Z,2.87
2019-05-21T13:47:04.139Z,2.80
2019-05-21T13:49:35.539Z,2.90
2019-05-21T13:52:06.953Z,3.00
2019-05-21T13:54:38.669Z,3.50
2019-05-21T13:57:09.956Z,2.60
2019-05-21T13:59:41.470Z,2.83
2019-05-21T14:02:13.740Z,3.37
2019-05-21T14:04:45.205Z,3.53
2019-05-21T14:07:16.511Z,3.10
2019-05-21T14:09:47.950Z,3.43
2019-05-21T14:12:19.225Z,3.37
2019-05-21T14:14:50.802Z,3.30
2019-05-21T14:17:22.173Z,3.10
2019-05-21T14:19:53.489Z,2.70
2019-05-21T14:22:24.803Z,3.30
2019-05-21T14:24:56.094Z,3.00
2019-05-21T14:27:43.168Z,3.70
2019-05-21T14:30:00.645Z,4.10
2019-05-21T14:32:32.074Z,4.87
2019-05-21T14:35:04.159Z,4.20
2019-05-21T14:37:35.458Z,4.30
2019-05-21T14:40:07.917Z,4.17
2019-05-21T14:42:39.311Z,3.90
2019-05-21T14:45:11.293Z,3.20
2019-05-21T14:47:42.928Z,3.13
2019-05-21T14:50:14.641Z,3.10
2019-05-21T14:52:46.054Z,2.90
2019-05-21T14:55:17.597Z,2.83
2019-05-21T14:57:49.303Z,2.70
2019-05-21T15:00:23.816Z,2.83
2019-05-21T15:02:55.368Z,2.90
2019-05-21T15:05:27.278Z,2.90
2019-05-21T15:07:58.823Z,3.37
2019-05-21T15:10:47.294Z,3.20
2019-05-21T15:13:05.939Z,3.20
2019-05-21T15:15:37.694Z,3.13
2019-05-21T15:18:09.054Z,3.50
2019-05-21T15:20:45.122Z,4.13
2019-05-21T15:23:16.905Z,4.03
2019-05-21T15:25:48.309Z,4.17
2019-05-21T15:28:20.747Z,4.10
2019-05-21T15:30:53.764Z,3.87
2019-05-21T15:33:25.116Z,3.53
2019-05-21T15:35:56.681Z,4.10
2019-05-21T15:38:28.242Z,3.60
2019-05-21T15:41:10.561Z,4.27
2019-05-21T15:43:32.572Z,3.80
2019-05-21T15:46:03.951Z,3.80
2019-05-21T15:48:35.226Z,3.83
2019-05-21T15:51:06.611Z,3.57
2019-05-21T15:53:37.894Z,3.93
2019-05-21T15:56:09.180Z,4.70
2019-05-21T15:58:40.568Z,3.70
2019-05-21T16:01:11.853Z,4.00
2019-05-21T16:03:43.153Z,3.53
2019-05-21T16:06:14.446Z,2.63
2019-05-21T16:08:45.850Z,2.83
2019-05-21T16:11:28.170Z,2.50
2019-05-21T16:13:50.297Z,2.10
2019-05-21T16:16:22.299Z,2.47
2019-05-21T16:18:53.854Z,2.13
2019-05-21T16:21:25.054Z,1.90
2019-05-21T16:23:56.801Z,1.80
2019-05-21T16:26:28.583Z,1.60
2019-05-21T16:29:00.577Z,1.60
2019-05-21T16:31:31.925Z,1.77
2019-05-21T16:34:03.434Z,1.60
2019-05-21T16:36:34.718Z,1.93
2019-05-21T16:39:06.125Z,3.37
2019-05-21T16:41:44.508Z,2.17
2019-05-21T16:44:11.082Z,1.50
2019-05-21T16:46:42.974Z,2.33
2019-05-21T16:49:14.771Z,1.10
2019-05-21T16:51:46.339Z,1.90
2019-05-21T16:54:17.686Z,1.00
2019-05-21T16:56:49.629Z,1.17
2019-05-21T16:59:21.066Z,1.40
2019-05-21T17:01:52.648Z,1.63
2019-05-21T17:04:24.212Z,1.03
2019-05-21T17:06:56.594Z,0.83
2019-05-21T17:09:28.451Z,0.80
2019-05-21T17:12:00.599Z,0.80
2019-05-21T17:14:31.957Z,1.10
2019-05-21T17:17:03.216Z,1.20
2019-05-21T17:19:34.962Z,1.00
2019-05-21T17:22:06.647Z,1.87
2019-05-21T17:24:38.601Z,1.10
2019-05-21T17:27:11.323Z,0.70
2019-05-21T17:29:42.621Z,1.00
2019-05-21T17:32:13.840Z,0.93
2019-05-21T17:34:45.442Z,1.30
2019-05-21T17:37:17.096Z,1.07
2019-05-21T17:39:48.761Z,1.40
2019-05-21T17:42:20.194Z,2.37
2019-05-21T17:44:51.849Z,1.50
2019-05-21T17:47:24.326Z,1.10
2019-05-21T17:49:55.832Z,1.00
2019-05-21T17:52:27.352Z,1.00
2019-05-21T17:54:58.708Z,0.90
2019-05-21T17:57:32.133Z,1.00
2019-05-21T18:00:06.462Z,0.93
2019-05-21T18:02:38.901Z,0.93
2019-05-21T18:05:10.612Z,1.30
2019-05-21T18:07:43.245Z,1.30
2019-05-21T18:10:15.877Z,1.10
2019-05-21T18:12:47.523Z,1.10
2019-05-21T18:15:18.873Z,1.30
2019-05-21T18:17:50.397Z,1.10
2019-05-21T18:20:21.802Z,1.07
2019-05-21T18:22:53.939Z,1.00
2019-05-21T18:25:25.237Z,1.40
2019-05-21T18:27:56.738Z,1.27
2019-05-21T18:30:28.948Z,1.10
2019-05-21T18:33:00.881Z,1.20
2019-05-21T18:35:32.211Z,1.20
2019-05-21T18:38:03.689Z,1.00
2019-05-21T18:40:35.398Z,1.20
2019-05-21T18:43:06.956Z,1.10
2019-05-21T18:45:38.207Z,1.00
2019-05-21T18:48:10.646Z,1.03
2019-05-21T18:50:42.214Z,1.10
2019-05-21T18:53:13.480Z,1.17
2019-05-21T18:55:44.744Z,1.20
2019-05-21T18:58:17.554Z,1.20
2019-05-21T19:00:49.204Z,1.10
2019-05-21T19:03:27.750Z,1.10
2019-05-21T19:05:54.906Z,1.00
2019-05-21T19:08:26.299Z,1.13
2019-05-21T19:10:59.026Z,1.10
2019-05-21T19:13:30.314Z,1.50
2019-05-21T19:16:01.630Z,1.07
2019-05-21T19:18:33.380Z,1.37
2019-05-21T19:21:05.519Z,1.10
2019-05-21T19:23:37.303Z,1.27
2019-05-21T19:26:08.725Z,1.20
2019-05-21T19:28:40.876Z,1.00
2019-05-21T19:31:12.161Z,1.10
2019-05-21T19:33:43.620Z,1.13
2019-05-21T19:36:14.817Z,0.93
2019-05-21T19:38:46.035Z,1.00
2019-05-21T19:41:17.433Z,0.97
2019-05-21T19:43:49.139Z,0.70
2019-05-21T19:46:20.401Z,0.90
2019-05-21T19:48:51.667Z,0.90
2019-05-21T19:51:23.253Z,1.10
2019-05-21T19:53:54.917Z,1.03
2019-05-21T19:56:26.215Z,1.30
2019-05-21T19:58:57.668Z,1.00
2019-05-21T20:01:29.022Z,1.00
2019-05-21T20:04:00.719Z,1.40
2019-05-21T20:06:32.640Z,1.30
2019-05-21T20:09:07.065Z,1.40
2019-05-21T20:11:39.066Z,1.40
2019-05-21T20:14:10.625Z,1.60
2019-05-21T20:16:42.110Z,1.67
2019-05-21T20:19:14.612Z,1.43
2019-05-21T20:21:46.179Z,1.23
2019-05-21T20:24:18.036Z,1.20
2019-05-21T20:26:49.423Z,1.40
2019-05-21T20:29:21.446Z,1.30
2019-05-21T20:31:53.038Z,1.27
2019-05-21T20:34:24.849Z,1.60
2019-05-21T20:36:56.821Z,1.90
2019-05-21T20:39:30.156Z,1.50
2019-05-21T20:42:02.425Z,2.00
2019-05-21T20:44:34.135Z,2.90
2019-05-21T20:47:07.638Z,3.50
2019-05-21T20:49:40.198Z,2.77
2019-05-21T20:52:18.744Z,3.80
2019-05-21T20:54:47.343Z,3.30
2019-05-21T20:57:19.877Z,3.23
2019-05-21T20:59:51.549Z,3.83
2019-05-21T21:02:23.317Z,3.60
2019-05-21T21:04:55.867Z,1.70
2019-05-21T21:07:27.224Z,2.53
2019-05-21T21:09:58.699Z,2.10
2019-05-21T21:12:30.002Z,3.10
2019-05-21T21:15:03.304Z,2.93
2019-05-21T21:17:35.357Z,3.40
2019-05-21T21:20:08.261Z,3.57
2019-05-21T21:22:39.641Z,2.80
2019-05-21T21:25:11.951Z,3.17
2019-05-21T21:27:43.326Z,2.93
2019-05-21T21:30:14.666Z,2.40
2019-05-21T21:32:46.225Z,2.20
2019-05-21T21:35:17.653Z,1.70
2019-05-21T21:37:49.286Z,1.93
2019-05-21T21:40:21.668Z,2.67
2019-05-21T21:42:52.917Z,2.90
2019-05-21T21:45:24.072Z,3.10
2019-05-21T21:47:55.573Z,2.50
2019-05-21T21:50:28.233Z,2.53
2019-05-21T21:52:59.579Z,2.60
2019-05-21T21:55:32.063Z,2.10
2019-05-21T21:58:03.695Z,2.17
2019-05-21T22:00:58.295Z,2.13
2019-05-21T22:03:31.790Z,2.00
2019-05-21T22:06:06.948Z,2.10
2019-05-21T22:08:38.206Z,1.80
2019-05-21T22:11:09.510Z,1.67
2019-05-21T22:13:40.859Z,1.63
2019-05-21T22:16:12.193Z,1.60
2019-05-21T22:18:44.336Z,1.80
2019-05-21T22:21:16.434Z,1.77
2019-05-21T22:23:50.336Z,1.60
2019-05-21T22:26:21.399Z,1.50
2019-05-21T22:28:52.845Z,2.00
2019-05-21T22:31:24.911Z,1.80
2019-05-21T22:33:56.155Z,1.73
2019-05-21T22:36:27.821Z,1.90
2019-05-21T22:38:59.146Z,1.83
2019-05-21T22:41:30.472Z,1.60
2019-05-21T22:44:01.813Z,1.87
2019-05-21T22:46:33.079Z,1.80
2019-05-21T22:49:04.396Z,2.03
2019-05-21T22:51:35.636Z,2.10
2019-05-21T22:54:06.890Z,1.80
2019-05-21T22:56:38.169Z,1.50
2019-05-21T22:59:09.453Z,1.73
2019-05-21T23:01:40.770Z,2.40
2019-05-21T23:04:12.038Z,2.03
2019-05-21T23:06:45.721Z,1.90
2019-05-21T23:09:16.950Z,1.83
2019-05-21T23:11:48.474Z,1.90
2019-05-21T23:14:19.749Z,1.80
2019-05-21T23:16:52.924Z,1.77
2019-05-21T23:19:29.005Z,1.90
2019-05-21T23:22:02.237Z,1.97
2019-05-21T23:24:33.652Z,1.63
2019-05-21T23:27:05.025Z,1.73
2019-05-21T23:29:37.219Z,1.77
2019-05-21T23:32:08.900Z,2.10
2019-05-21T23:34:40.511Z,2.07
2019-05-21T23:37:15.522Z,1.90
2019-05-21T23:39:49.093Z,2.03
2019-05-21T23:42:29.061Z,2.13
2019-05-21T23:44:54.203Z,1.80
2019-05-21T23:47:26.269Z,2.17
2019-05-21T23:49:57.529Z,2.03
2019-05-21T23:52:30.421Z,2.10
2019-05-21T23:55:01.706Z,1.90
2019-05-21T23:57:35.820Z,2.10
